createdAt,value
2023-02-08T00:00:10.885Z,10.95
2023-02-08T00:02:13.013Z,10.77
2023-02-08T00:04:15.064Z,10.75
2023-02-08T00:06:17.381Z,10.65
2023-02-08T00:08:19.449Z,11.55
2023-02-08T00:10:21.594Z,11.63
2023-02-08T00:12:23.937Z,12.63
2023-02-08T00:14:26.004Z,11.93
2023-02-08T00:16:28.061Z,11.40
2023-02-08T00:18:30.265Z,11.13
2023-02-08T00:20:32.415Z,12.13
2023-02-08T00:22:34.557Z,11.27
2023-02-08T00:24:36.521Z,11.23
2023-02-08T00:26:38.664Z,11.43
2023-02-08T00:28:40.725Z,12.50
2023-02-08T00:30:43.639Z,11.98
2023-02-08T00:32:45.689Z,12.50
2023-02-08T00:34:47.775Z,10.57
2023-02-08T00:36:49.812Z,12.68
2023-02-08T00:38:51.924Z,11.45
2023-02-08T00:40:54.002Z,12.73
2023-02-08T00:42:56.093Z,11.43
2023-02-08T00:44:58.625Z,11.45
2023-02-08T00:47:00.668Z,12.15
2023-02-08T00:49:02.905Z,11.88
2023-02-08T00:51:08.945Z,10.65
2023-02-08T00:53:10.981Z,12.18
2023-02-08T00:55:12.962Z,11.68
2023-02-08T00:57:15.462Z,11.43
2023-02-08T00:59:17.482Z,11.63
2023-02-08T01:01:19.582Z,11.57
2023-02-08T01:03:23.032Z,11.57
2023-02-08T01:05:25.025Z,12.23
2023-02-08T01:07:27.030Z,12.00
2023-02-08T01:09:29.025Z,11.77
2023-02-08T01:11:31.108Z,12.10
2023-02-08T01:13:33.127Z,11.10
2023-02-08T01:15:35.159Z,12.00
2023-02-08T01:17:37.194Z,11.15
2023-02-08T01:19:41.118Z,12.25
2023-02-08T01:21:44.397Z,11.95
2023-02-08T01:23:46.596Z,11.82
2023-02-08T01:25:48.620Z,11.95
2023-02-08T01:27:50.633Z,11.88
2023-02-08T01:29:52.959Z,11.45
2023-02-08T01:31:54.972Z,12.65
2023-02-08T01:33:58.399Z,12.93
2023-02-08T01:36:00.436Z,11.85
2023-02-08T01:38:02.467Z,12.93
2023-02-08T01:40:05.024Z,12.02
2023-02-08T01:42:07.025Z,12.45
2023-02-08T01:44:12.528Z,13.38
2023-02-08T01:46:14.435Z,11.85
2023-02-08T01:48:23.356Z,12.30
2023-02-08T01:50:32.254Z,13.60
2023-02-08T01:52:34.351Z,11.65
2023-02-08T01:54:43.359Z,11.30
2023-02-08T01:56:47.346Z,11.65
2023-02-08T01:58:55.012Z,12.57
2023-02-08T02:00:57.010Z,13.30
2023-02-08T02:03:00.984Z,13.77
2023-02-08T02:05:03.473Z,13.68
2023-02-08T02:07:06.418Z,14.02
2023-02-08T02:09:17.992Z,13.52
2023-02-08T02:11:20.714Z,13.63
2023-02-08T02:13:25.146Z,15.13
2023-02-08T02:15:27.168Z,14.13
2023-02-08T02:17:30.304Z,15.25
2023-02-08T02:19:35.734Z,15.60
2023-02-08T02:21:43.966Z,17.95
2023-02-08T02:23:50.399Z,16.15
2023-02-08T02:25:55.337Z,16.55
2023-02-08T02:28:03.595Z,17.48
2023-02-08T02:30:12.734Z,16.83
2023-02-08T02:32:24.183Z,18.58
2023-02-08T02:34:32.266Z,17.35
2023-02-08T02:36:40.504Z,17.98
2023-02-08T02:38:49.361Z,18.75
2023-02-08T02:41:06.474Z,17.48
2023-02-08T02:43:16.253Z,18.08
2023-02-08T02:45:27.308Z,18.45
2023-02-08T02:47:37.302Z,19.42
2023-02-08T02:49:51.523Z,18.97
2023-02-08T02:52:02.220Z,18.45
2023-02-08T02:54:11.071Z,19.58
2023-02-08T02:56:18.482Z,19.25
2023-02-08T02:58:24.048Z,17.85
2023-02-08T03:00:28.938Z,20.17
2023-02-08T03:02:30.904Z,17.88
2023-02-08T03:04:33.667Z,19.15
2023-02-08T03:06:46.874Z,18.80
2023-02-08T03:08:55.615Z,18.88
2023-02-08T03:11:00.974Z,18.90
2023-02-08T03:13:15.880Z,19.17
2023-02-08T03:15:22.481Z,19.85
2023-02-08T03:17:34.234Z,18.75
2023-02-08T03:19:43.921Z,18.10
2023-02-08T03:21:56.938Z,19.77
2023-02-08T03:24:05.092Z,19.02
2023-02-08T03:26:09.918Z,18.10
2023-02-08T03:28:20.742Z,19.40
2023-02-08T03:30:29.127Z,19.40
2023-02-08T03:32:40.638Z,18.85
2023-02-08T03:34:49.395Z,18.45
2023-02-08T03:36:58.385Z,18.55
2023-02-08T03:39:03.510Z,19.20
2023-02-08T03:41:10.344Z,18.30
2023-02-08T03:43:18.253Z,19.13
2023-02-08T03:45:27.208Z,19.27
2023-02-08T03:47:35.408Z,19.63
2023-02-08T03:49:39.521Z,18.67
2023-02-08T03:51:43.847Z,18.48
2023-02-08T03:53:46.887Z,19.10
2023-02-08T03:55:53.355Z,19.02
2023-02-08T03:57:59.934Z,19.17
2023-02-08T04:00:07.301Z,18.02
2023-02-08T04:02:14.268Z,19.17
2023-02-08T04:04:18.970Z,18.88
2023-02-08T04:06:22.169Z,19.45
2023-02-08T04:08:26.243Z,19.33
2023-02-08T04:10:28.190Z,19.23
2023-02-08T04:12:30.807Z,18.48
2023-02-08T04:14:32.736Z,17.67
2023-02-08T04:16:34.720Z,17.67
2023-02-08T04:18:36.676Z,17.98
2023-02-08T04:20:39.165Z,17.80
2023-02-08T04:22:41.373Z,18.08
2023-02-08T04:24:43.376Z,19.00
2023-02-08T04:26:45.396Z,18.83
2023-02-08T04:28:47.444Z,18.20
2023-02-08T04:30:49.771Z,18.73
2023-02-08T04:32:51.719Z,19.77
2023-02-08T04:34:53.734Z,18.10
2023-02-08T04:36:55.736Z,16.83
2023-02-08T04:38:58.824Z,17.13
2023-02-08T04:41:00.852Z,18.02
2023-02-08T04:43:02.887Z,18.70
2023-02-08T04:45:05.347Z,17.38
2023-02-08T04:47:07.296Z,18.88
2023-02-08T04:49:09.262Z,18.73
2023-02-08T04:51:11.279Z,18.65
2023-02-08T04:53:13.251Z,18.33
2023-02-08T04:55:15.359Z,19.33
2023-02-08T04:57:17.341Z,18.85
2023-02-08T04:59:20.011Z,18.70
2023-02-08T05:01:22.019Z,19.00
2023-02-08T05:03:24.012Z,19.85
2023-02-08T05:05:27.838Z,20.05
2023-02-08T05:07:29.756Z,19.27
2023-02-08T05:09:31.797Z,17.85
2023-02-08T05:11:34.225Z,18.83
2023-02-08T05:13:36.171Z,18.98
2023-02-08T05:15:38.108Z,19.65
2023-02-08T05:17:40.412Z,17.85
2023-02-08T05:19:42.478Z,18.67
2023-02-08T05:21:44.427Z,19.15
2023-02-08T05:23:46.966Z,18.33
2023-02-08T05:25:49.033Z,18.60
2023-02-08T05:27:51.132Z,17.83
2023-02-08T05:29:53.092Z,18.20
2023-02-08T05:31:55.157Z,18.80
2023-02-08T05:33:57.112Z,18.17
2023-02-08T05:35:59.111Z,18.50
2023-02-08T05:38:01.052Z,18.75
2023-02-08T05:40:03.291Z,17.15
2023-02-08T05:42:05.486Z,17.40
2023-02-08T05:44:07.619Z,17.00
2023-02-08T05:46:09.832Z,17.48
2023-02-08T05:48:11.734Z,17.73
2023-02-08T05:50:14.872Z,17.75
2023-02-08T05:52:16.834Z,17.92
2023-02-08T05:54:18.875Z,17.48
2023-02-08T05:56:21.421Z,18.25
2023-02-08T05:58:23.438Z,16.98
2023-02-08T06:00:25.548Z,16.50
2023-02-08T06:02:27.576Z,17.38
2023-02-08T06:04:29.634Z,16.67
2023-02-08T06:06:31.663Z,17.23
2023-02-08T06:08:33.995Z,17.63
2023-02-08T06:10:36.328Z,16.42
2023-02-08T06:12:38.194Z,16.45
2023-02-08T06:14:40.196Z,15.75
2023-02-08T06:16:42.372Z,16.17
2023-02-08T06:18:44.402Z,17.00
2023-02-08T06:20:46.295Z,16.25
2023-02-08T06:22:49.620Z,15.85
2023-02-08T06:24:51.622Z,16.05
2023-02-08T06:26:53.597Z,17.38
2023-02-08T06:28:55.668Z,16.63
2023-02-08T06:30:57.656Z,15.55
2023-02-08T06:32:59.621Z,17.35
2023-02-08T06:35:01.591Z,16.50
2023-02-08T06:37:05.654Z,17.48
2023-02-08T06:39:07.610Z,16.15
2023-02-08T06:41:09.792Z,17.27
2023-02-08T06:43:12.087Z,16.40
2023-02-08T06:45:14.239Z,17.15
2023-02-08T06:47:16.573Z,16.98
2023-02-08T06:49:19.004Z,16.95
2023-02-08T06:51:20.988Z,16.05
2023-02-08T06:53:23.152Z,16.20
2023-02-08T06:55:25.196Z,16.33
2023-02-08T06:57:27.133Z,16.52
2023-02-08T06:59:29.214Z,17.35
2023-02-08T07:01:31.236Z,18.70
2023-02-08T07:03:33.282Z,17.75
2023-02-08T07:05:36.136Z,17.85
2023-02-08T07:07:38.084Z,17.50
2023-02-08T07:09:40.391Z,17.02
2023-02-08T07:11:42.400Z,17.35
2023-02-08T07:13:48.278Z,16.77
2023-02-08T07:15:50.390Z,17.20
2023-02-08T07:17:52.485Z,18.58
2023-02-08T07:19:54.664Z,19.25
2023-02-08T07:21:57.415Z,20.13
2023-02-08T07:23:59.445Z,19.58
2023-02-08T07:26:04.887Z,19.42
2023-02-08T07:28:07.155Z,19.23
2023-02-08T07:30:10.171Z,19.02
2023-02-08T07:32:12.456Z,17.73
2023-02-08T07:34:14.653Z,17.48
2023-02-08T07:36:16.831Z,17.75
2023-02-08T07:38:20.707Z,17.77
2023-02-08T07:40:23.181Z,16.58
2023-02-08T07:42:26.556Z,17.20
2023-02-08T07:44:28.725Z,17.15
2023-02-08T07:46:31.076Z,16.40
2023-02-08T07:48:33.406Z,15.77
2023-02-08T07:50:35.661Z,16.55
2023-02-08T07:52:37.788Z,15.55
2023-02-08T07:54:39.933Z,15.35
2023-02-08T07:56:42.035Z,14.48
2023-02-08T07:58:44.341Z,13.75
2023-02-08T08:00:46.430Z,13.73
2023-02-08T08:02:51.161Z,13.27
2023-02-08T08:04:54.759Z,13.32
2023-02-08T08:06:57.088Z,12.45
2023-02-08T08:08:59.239Z,13.23
2023-02-08T08:11:03.723Z,12.55
2023-02-08T08:13:06.487Z,13.20
2023-02-08T08:15:09.057Z,12.35
2023-02-08T08:17:11.317Z,11.95
2023-02-08T08:19:13.487Z,12.30
2023-02-08T08:21:16.996Z,11.68
2023-02-08T08:23:19.922Z,12.32
2023-02-08T08:25:22.675Z,11.63
2023-02-08T08:27:25.093Z,12.43
2023-02-08T08:29:27.507Z,13.07
2023-02-08T08:31:31.159Z,13.35
2023-02-08T08:33:33.979Z,15.65
2023-02-08T08:35:36.813Z,15.38
2023-02-08T08:37:39.732Z,14.73
2023-02-08T08:39:42.566Z,16.25
2023-02-08T08:41:45.103Z,14.52
2023-02-08T08:43:47.673Z,13.90
2023-02-08T08:45:51.597Z,14.90
2023-02-08T08:47:55.428Z,15.23
2023-02-08T08:49:57.897Z,17.27
2023-02-08T08:52:00.435Z,16.30
2023-02-08T08:54:03.677Z,16.63
2023-02-08T08:56:06.685Z,16.48
2023-02-08T08:58:09.140Z,18.35
2023-02-08T09:00:12.936Z,18.25
2023-02-08T09:02:15.744Z,18.13
2023-02-08T09:04:18.617Z,17.05
2023-02-08T09:06:20.840Z,17.25
2023-02-08T09:08:23.500Z,18.15
2023-02-08T09:10:25.900Z,17.35
2023-02-08T09:12:29.025Z,17.05
2023-02-08T09:14:31.580Z,17.05
2023-02-08T09:16:33.980Z,15.90
2023-02-08T09:18:36.876Z,17.75
2023-02-08T09:20:39.729Z,16.02
2023-02-08T09:22:42.106Z,14.50
2023-02-08T09:24:44.240Z,16.52
2023-02-08T09:26:46.613Z,13.95
2023-02-08T09:28:49.178Z,14.38
2023-02-08T09:30:51.416Z,15.25
2023-02-08T09:32:53.955Z,15.27
2023-02-08T09:34:58.058Z,16.63
2023-02-08T09:37:00.209Z,14.82
2023-02-08T09:39:07.744Z,14.82
2023-02-08T09:41:16.400Z,15.80
2023-02-08T09:43:32.217Z,14.90
2023-02-08T09:45:47.891Z,15.48
2023-02-08T09:47:59.645Z,14.63
2023-02-08T09:50:05.251Z,16.75
2023-02-08T09:52:13.861Z,15.60
2023-02-08T09:54:19.972Z,15.38
2023-02-08T09:56:29.804Z,14.82
2023-02-08T09:58:38.392Z,14.20
2023-02-08T10:00:44.985Z,14.60
2023-02-08T10:02:49.193Z,14.18
2023-02-08T10:04:54.939Z,15.38
2023-02-08T10:06:57.408Z,13.23
2023-02-08T10:09:04.859Z,14.25
2023-02-08T10:11:13.175Z,12.18
2023-02-08T10:13:25.688Z,12.95
2023-02-08T10:15:42.290Z,13.20
2023-02-08T10:17:48.281Z,14.13
2023-02-08T10:19:54.988Z,13.57
2023-02-08T10:22:03.367Z,13.73
2023-02-08T10:24:20.250Z,14.20
2023-02-08T10:26:25.313Z,13.93
2023-02-08T10:28:33.861Z,13.23
2023-02-08T10:30:44.986Z,14.63
2023-02-08T10:32:51.068Z,14.15
2023-02-08T10:34:59.352Z,14.13
2023-02-08T10:37:06.489Z,12.65
2023-02-08T10:39:14.852Z,13.82
2023-02-08T10:41:23.948Z,13.95
2023-02-08T10:43:33.023Z,14.40
2023-02-08T10:45:42.220Z,13.57
2023-02-08T10:47:49.483Z,13.25
2023-02-08T10:49:58.795Z,13.35
2023-02-08T10:52:01.255Z,13.48
2023-02-08T10:54:03.634Z,12.45
2023-02-08T10:56:07.254Z,11.55
2023-02-08T10:58:16.982Z,12.65
2023-02-08T11:00:23.556Z,13.50
2023-02-08T11:02:31.889Z,12.80
2023-02-08T11:04:34.155Z,12.70
2023-02-08T11:06:37.842Z,12.93
2023-02-08T11:08:55.566Z,13.07
2023-02-08T11:11:01.393Z,12.77
2023-02-08T11:13:16.075Z,12.23
2023-02-08T11:15:23.552Z,12.85
2023-02-08T11:17:31.735Z,14.32
2023-02-08T11:19:42.983Z,14.63
2023-02-08T11:21:50.916Z,14.23
2023-02-08T11:23:55.814Z,14.35
2023-02-08T11:26:04.252Z,14.48
2023-02-08T11:28:25.829Z,15.07
2023-02-08T11:30:28.020Z,15.10
2023-02-08T11:32:30.331Z,15.05
2023-02-08T11:34:35.571Z,13.93
2023-02-08T11:36:47.286Z,13.35
2023-02-08T11:38:49.570Z,14.05
2023-02-08T11:40:53.776Z,13.80
2023-02-08T11:42:57.032Z,14.10
2023-02-08T11:45:00.292Z,13.60
2023-02-08T11:47:06.215Z,13.50
2023-02-08T11:49:23.657Z,13.98
2023-02-08T11:51:30.419Z,12.52
2023-02-08T11:53:37.909Z,10.88
2023-02-08T11:55:41.085Z,11.38
2023-02-08T11:57:49.644Z,10.38
2023-02-08T12:00:10.216Z,10.82
2023-02-08T12:02:18.759Z,9.23
2023-02-08T12:04:22.778Z,9.43
2023-02-08T12:06:31.240Z,10.75
2023-02-08T12:08:39.773Z,9.90
2023-02-08T12:10:46.451Z,10.07
2023-02-08T12:12:53.576Z,12.73
2023-02-08T12:14:59.307Z,10.00
2023-02-08T12:17:12.349Z,10.90
2023-02-08T12:19:27.612Z,10.30
2023-02-08T12:21:36.229Z,10.93
2023-02-08T12:23:42.917Z,11.32
2023-02-08T12:25:49.901Z,11.95
2023-02-08T12:27:56.926Z,11.40
2023-02-08T12:30:03.957Z,11.68
2023-02-08T12:32:24.919Z,10.80
2023-02-08T12:36:33.233Z,13.60
2023-02-08T12:38:44.728Z,13.38
2023-02-08T12:40:53.324Z,12.15
2023-02-08T12:43:03.990Z,12.27
2023-02-08T12:45:17.828Z,13.70
2023-02-08T12:47:26.261Z,14.00
2023-02-08T12:49:47.210Z,14.02
2023-02-08T12:53:58.063Z,14.02
2023-02-08T12:56:07.144Z,14.52
2023-02-08T12:58:12.724Z,13.98
2023-02-08T13:00:21.204Z,13.68
2023-02-08T13:02:29.835Z,13.10
2023-02-08T13:04:38.769Z,14.00
2023-02-08T13:06:45.249Z,13.90
2023-02-08T13:08:52.701Z,14.43
2023-02-08T13:11:17.864Z,16.05
2023-02-08T13:13:26.805Z,15.48
2023-02-08T13:15:33.633Z,16.35
2023-02-08T13:17:39.751Z,15.40
2023-02-08T13:19:59.790Z,15.27
2023-02-08T13:22:05.929Z,16.35
2023-02-08T13:24:23.408Z,16.05
2023-02-08T13:26:31.778Z,15.05
2023-02-08T13:28:34.735Z,13.57
2023-02-08T13:30:40.286Z,11.30
2023-02-08T13:32:46.989Z,11.32
2023-02-08T13:34:55.604Z,9.77
2023-02-08T13:37:02.195Z,10.32
2023-02-08T13:39:08.348Z,8.52
2023-02-08T13:41:16.613Z,9.02
2023-02-08T13:43:34.734Z,8.77
2023-02-08T13:45:44.449Z,8.95
2023-02-08T13:47:49.569Z,9.43
2023-02-08T13:49:54.162Z,8.25
2023-02-08T13:51:56.402Z,9.00
2023-02-08T13:54:00.755Z,7.45
2023-02-08T13:56:06.022Z,8.00
2023-02-08T13:58:14.644Z,8.85
2023-02-08T14:00:25.192Z,8.32
2023-02-08T14:02:28.658Z,7.00
2023-02-08T14:04:35.099Z,6.80
2023-02-08T14:06:41.413Z,7.28
2023-02-08T14:08:52.370Z,7.68
2023-02-08T14:11:01.275Z,6.32
2023-02-08T14:13:14.276Z,7.32
2023-02-08T14:15:17.172Z,7.30
2023-02-08T14:17:27.815Z,6.57
2023-02-08T14:21:38.612Z,6.25
2023-02-08T14:23:41.204Z,7.07
2023-02-08T14:25:47.604Z,6.65
2023-02-08T14:27:54.839Z,6.15
2023-02-08T14:30:02.872Z,7.00
2023-02-08T14:32:05.940Z,7.63
2023-02-08T14:34:22.787Z,7.32
2023-02-08T14:36:29.966Z,8.00
2023-02-08T14:38:38.364Z,8.50
2023-02-08T14:40:49.091Z,8.02
2023-02-08T14:42:57.616Z,8.90
2023-02-08T14:45:02.082Z,9.15
2023-02-08T14:47:10.690Z,9.50
2023-02-08T14:49:16.194Z,11.45
2023-02-08T14:51:25.342Z,11.55
2023-02-08T14:53:34.874Z,12.82
2023-02-08T14:55:46.045Z,12.65
2023-02-08T14:57:49.333Z,12.73
2023-02-08T14:59:54.357Z,12.90
2023-02-08T15:02:00.864Z,12.75
2023-02-08T15:04:04.079Z,12.73
2023-02-08T15:06:12.640Z,13.38
2023-02-08T15:08:21.896Z,13.70
2023-02-08T15:10:26.376Z,13.27
2023-02-08T15:12:32.786Z,14.35
2023-02-08T15:14:37.135Z,12.95
2023-02-08T15:16:44.124Z,13.25
2023-02-08T15:18:49.449Z,14.55
2023-02-08T15:20:59.655Z,15.02
2023-02-08T15:23:06.687Z,14.45
2023-02-08T15:25:22.302Z,14.23
2023-02-08T15:27:27.732Z,13.05
2023-02-08T15:29:43.986Z,11.43
2023-02-08T15:31:47.845Z,11.52
2023-02-08T15:33:52.857Z,11.35
2023-02-08T15:36:00.488Z,11.05
2023-02-08T15:38:05.917Z,10.02
2023-02-08T15:40:22.923Z,11.05
2023-02-08T15:42:29.339Z,10.98
2023-02-08T15:44:35.183Z,10.98
2023-02-08T15:46:39.212Z,12.00
2023-02-08T15:48:45.028Z,10.45
2023-02-08T15:50:47.686Z,11.70
2023-02-08T15:52:58.177Z,11.85
2023-02-08T15:55:00.618Z,11.70
2023-02-08T15:57:06.947Z,11.45
2023-02-08T15:59:21.348Z,11.52
2023-02-08T16:01:25.741Z,11.07
2023-02-08T16:03:30.030Z,12.18
2023-02-08T16:05:34.061Z,12.85
2023-02-08T16:07:40.153Z,11.73
2023-02-08T16:09:48.047Z,12.30
2023-02-08T16:11:50.933Z,11.40
2023-02-08T16:13:57.805Z,12.88
2023-02-08T16:16:16.985Z,11.57
2023-02-08T16:18:30.287Z,12.85
2023-02-08T16:20:35.549Z,11.63
2023-02-08T16:22:38.221Z,12.65
2023-02-08T16:24:40.757Z,12.35
2023-02-08T16:26:45.365Z,11.70
2023-02-08T16:28:53.991Z,13.93
2023-02-08T16:30:58.740Z,12.30
2023-02-08T16:33:07.509Z,13.45
2023-02-08T16:35:14.064Z,13.25
2023-02-08T16:37:22.960Z,12.43
2023-02-08T16:39:31.663Z,12.20
2023-02-08T16:42:00.889Z,12.55
2023-02-08T16:44:12.396Z,12.07
2023-02-08T16:46:17.239Z,12.60
2023-02-08T16:48:27.759Z,12.38
2023-02-08T16:50:31.831Z,10.90
2023-02-08T16:52:35.094Z,12.85
2023-02-08T16:54:37.739Z,12.68
2023-02-08T16:56:42.139Z,11.80
2023-02-08T16:58:44.788Z,12.48
2023-02-08T17:00:47.416Z,12.68
2023-02-08T17:02:51.207Z,11.50
2023-02-08T17:04:55.177Z,11.10
2023-02-08T17:06:57.656Z,10.05
2023-02-08T17:09:01.672Z,10.73
2023-02-08T17:11:04.316Z,10.75
2023-02-08T17:13:19.937Z,10.50
2023-02-08T17:15:25.273Z,10.05
2023-02-08T17:17:28.239Z,10.73
2023-02-08T17:19:30.870Z,11.20
2023-02-08T17:21:34.162Z,10.43
2023-02-08T17:23:36.871Z,10.80
2023-02-08T17:25:39.895Z,10.00
2023-02-08T17:27:42.469Z,11.10
2023-02-08T17:29:45.206Z,11.15
2023-02-08T17:31:48.692Z,9.90
2023-02-08T17:33:51.662Z,10.50
2023-02-08T17:35:54.377Z,11.13
2023-02-08T17:37:58.878Z,10.90
2023-02-08T17:40:01.356Z,10.60
2023-02-08T17:42:04.054Z,12.00
2023-02-08T17:44:07.493Z,10.05
2023-02-08T17:46:16.266Z,10.00
2023-02-08T17:48:19.743Z,11.25
2023-02-08T17:50:23.926Z,10.75
2023-02-08T17:52:26.560Z,10.10
2023-02-08T17:54:29.117Z,10.35
2023-02-08T17:56:35.756Z,10.38
2023-02-08T17:58:39.204Z,11.00
2023-02-08T18:00:42.433Z,10.73
2023-02-08T18:02:47.768Z,12.05
2023-02-08T18:04:50.389Z,11.68
2023-02-08T18:06:53.047Z,11.60
2023-02-08T18:08:56.157Z,11.98
2023-02-08T18:11:04.332Z,11.30
2023-02-08T18:13:07.220Z,12.23
2023-02-08T18:15:13.991Z,11.20
2023-02-08T18:17:16.538Z,11.55
2023-02-08T18:19:19.852Z,11.27
2023-02-08T18:21:26.021Z,12.40
2023-02-08T18:23:29.096Z,12.15
2023-02-08T18:25:32.391Z,11.70
2023-02-08T18:27:34.947Z,11.73
2023-02-08T18:29:37.591Z,11.60
2023-02-08T18:31:41.571Z,12.10
2023-02-08T18:33:44.787Z,12.10
2023-02-08T18:35:49.579Z,12.48
2023-02-08T18:37:53.778Z,12.80
2023-02-08T18:39:56.219Z,12.93
2023-02-08T18:41:58.796Z,13.77
2023-02-08T18:44:02.788Z,12.80
2023-02-08T18:46:10.222Z,13.63
2023-02-08T18:48:13.658Z,12.43
2023-02-08T18:50:16.461Z,13.23
2023-02-08T18:52:18.780Z,13.13
2023-02-08T18:54:21.989Z,13.38
2023-02-08T18:56:26.837Z,14.07
2023-02-08T18:58:29.824Z,14.95
2023-02-08T19:00:32.414Z,15.02
2023-02-08T19:02:35.926Z,14.27
2023-02-08T19:04:39.894Z,13.32
2023-02-08T19:06:42.373Z,13.25
2023-02-08T19:08:45.937Z,13.90
2023-02-08T19:10:48.209Z,13.55
2023-02-08T19:12:50.943Z,13.88
2023-02-08T19:14:53.196Z,14.70
2023-02-08T19:16:56.295Z,14.32
2023-02-08T19:19:01.335Z,14.35
2023-02-08T19:21:06.366Z,15.40
2023-02-08T19:23:08.854Z,14.73
2023-02-08T19:25:11.326Z,14.65
2023-02-08T19:27:13.901Z,14.30
2023-02-08T19:29:22.243Z,15.55
2023-02-08T19:31:26.458Z,14.00
2023-02-08T19:33:28.991Z,16.23
2023-02-08T19:35:31.334Z,15.02
2023-02-08T19:37:33.733Z,13.93
2023-02-08T19:39:35.961Z,13.27
2023-02-08T19:41:39.680Z,14.68
2023-02-08T19:43:41.996Z,15.30
2023-02-08T19:45:45.319Z,15.80
2023-02-08T19:47:51.672Z,14.82
2023-02-08T19:49:55.234Z,15.63
2023-02-08T19:51:57.645Z,13.55
2023-02-08T19:54:01.164Z,14.02
2023-02-08T19:56:06.781Z,13.45
2023-02-08T19:58:10.811Z,14.43
2023-02-08T20:00:23.493Z,14.95
2023-02-08T20:02:27.817Z,15.18
2023-02-08T20:04:30.367Z,13.45
2023-02-08T20:06:36.063Z,13.73
2023-02-08T20:08:38.908Z,14.02
2023-02-08T20:10:42.664Z,14.60
2023-02-08T20:12:45.384Z,13.65
2023-02-08T20:14:48.632Z,14.60
2023-02-08T20:16:51.707Z,14.18
2023-02-08T20:18:56.354Z,13.32
2023-02-08T20:21:02.323Z,13.57
2023-02-08T20:23:14.091Z,13.98
2023-02-08T20:25:20.746Z,13.48
2023-02-08T20:27:23.883Z,13.85
2023-02-08T20:29:28.224Z,14.10
2023-02-08T20:31:33.908Z,14.23
2023-02-08T20:33:36.337Z,13.07
2023-02-08T20:35:38.660Z,13.18
2023-02-08T20:37:41.870Z,14.50
2023-02-08T20:39:44.076Z,13.88
2023-02-08T20:41:47.647Z,13.48
2023-02-08T20:43:50.348Z,14.52
2023-02-08T20:45:52.601Z,13.40
2023-02-08T20:47:55.089Z,13.38
2023-02-08T20:49:58.436Z,13.90
2023-02-08T20:52:00.902Z,13.50
2023-02-08T20:54:04.493Z,13.50
2023-02-08T20:56:09.691Z,12.88
2023-02-08T20:58:11.750Z,13.98
2023-02-08T21:00:14.774Z,14.10
2023-02-08T21:02:24.589Z,13.65
2023-02-08T21:04:27.467Z,14.73
2023-02-08T21:06:34.121Z,15.18
2023-02-08T21:08:36.375Z,13.88
2023-02-08T21:10:38.665Z,14.25
2023-02-08T21:12:40.839Z,13.45
2023-02-08T21:14:44.749Z,13.02
2023-02-08T21:16:49.053Z,13.55
2023-02-08T21:18:51.210Z,13.88
2023-02-08T21:20:54.067Z,14.40
2023-02-08T21:22:56.540Z,13.35
2023-02-08T21:24:58.701Z,13.80
2023-02-08T21:27:01.610Z,13.55
2023-02-08T21:29:06.615Z,12.18
2023-02-08T21:31:13.270Z,13.00
2023-02-08T21:33:16.504Z,13.32
2023-02-08T21:35:21.003Z,12.70
2023-02-08T21:37:24.552Z,12.80
2023-02-08T21:39:27.175Z,13.45
2023-02-08T21:41:32.797Z,13.88
2023-02-08T21:43:36.622Z,12.98
2023-02-08T21:45:39.590Z,13.07
2023-02-08T21:47:42.286Z,13.30
2023-02-08T21:49:47.617Z,13.00
2023-02-08T21:51:52.889Z,13.07
2023-02-08T21:53:58.209Z,13.50
2023-02-08T21:56:00.449Z,13.07
2023-02-08T21:58:02.769Z,13.13
2023-02-08T22:00:08.730Z,14.07
2023-02-08T22:02:16.425Z,13.48
2023-02-08T22:04:18.470Z,14.95
2023-02-08T22:06:20.540Z,14.48
2023-02-08T22:08:22.696Z,13.10
2023-02-08T22:10:27.500Z,13.95
2023-02-08T22:12:29.566Z,14.38
2023-02-08T22:14:35.284Z,14.10
2023-02-08T22:16:37.460Z,13.45
2023-02-08T22:18:41.542Z,13.48
2023-02-08T22:20:45.126Z,14.40
2023-02-08T22:22:47.396Z,13.23
2023-02-08T22:24:49.435Z,14.27
2023-02-08T22:26:51.402Z,14.15
2023-02-08T22:28:54.053Z,13.75
2023-02-08T22:30:56.157Z,14.88
2023-02-08T22:32:58.213Z,13.63
2023-02-08T22:35:00.310Z,14.43
2023-02-08T22:37:04.362Z,14.38
2023-02-08T22:39:07.249Z,14.43
2023-02-08T22:41:11.271Z,14.70
2023-02-08T22:43:13.339Z,14.38
2023-02-08T22:45:15.384Z,13.73
2023-02-08T22:47:17.425Z,14.85
2023-02-08T22:49:19.564Z,15.93
2023-02-08T22:51:23.697Z,15.98
2023-02-08T22:53:26.644Z,15.57
2023-02-08T22:55:28.891Z,15.05
2023-02-08T22:57:32.232Z,15.68
2023-02-08T22:59:34.249Z,16.30
2023-02-08T23:01:36.989Z,15.02
2023-02-08T23:03:39.379Z,15.80
2023-02-08T23:05:43.024Z,14.70
2023-02-08T23:07:45.179Z,15.13
2023-02-08T23:09:47.339Z,14.48
2023-02-08T23:11:49.369Z,14.85
2023-02-08T23:13:51.375Z,17.02
2023-02-08T23:15:53.384Z,14.88
2023-02-08T23:17:55.707Z,15.25
2023-02-08T23:19:57.785Z,15.32
2023-02-08T23:22:00.565Z,15.98
2023-02-08T23:24:02.592Z,15.90
2023-02-08T23:26:07.534Z,15.35
2023-02-08T23:28:11.434Z,15.25
2023-02-08T23:30:13.943Z,15.57
2023-02-08T23:32:15.920Z,15.82
2023-02-08T23:34:19.130Z,16.30
2023-02-08T23:36:23.425Z,16.10
2023-02-08T23:38:25.711Z,15.35
2023-02-08T23:40:27.707Z,15.55
2023-02-08T23:42:29.659Z,15.85
2023-02-08T23:44:31.751Z,16.15
2023-02-08T23:46:33.841Z,16.25
2023-02-08T23:48:38.431Z,16.80
2023-02-08T23:50:41.275Z,16.13
2023-02-08T23:52:43.195Z,15.68
2023-02-08T23:54:45.358Z,17.17
2023-02-08T23:56:47.409Z,17.23
2023-02-08T23:58:51.727Z,15.75
